Time;durP1;ratioP1;P1;durP2;ratioP2;P2;SDS_P1;SDS_P2;PMS_P1;PMS_P2;Temp;Humidity;BMP_temperature;BMP_pressure;BME280_temperature;BME280_humidity;BME280_pressure;Samples;Min_cycle;Max_cycle;Signal;HPM_P1;HPM_P2
2023/08/17 00:01:49;;;;;;;7.78;3.72;;;;;;;;;;4975359;28;20224;-74
2023/08/17 00:04:15;;;;;;;6.15;3.13;;;;;;;;;;4975239;28;20034;-74
2023/08/17 00:06:40;;;;;;;6.00;3.55;;;;;;;;;;4959512;28;20033;-76
2023/08/17 00:09:06;;;;;;;7.25;3.30;;;;;;;;;;4959552;28;20030;-76
2023/08/17 00:11:32;;;;;;;9.68;4.45;;;;;;;;;;4975748;28;20098;-74
2023/08/17 00:13:57;;;;;;;4.75;3.13;;;;;;;;;;4976509;28;20054;-74
2023/08/17 00:16:23;;;;;;;5.00;3.20;;;;;;;;;;4943001;29;20046;-74
2023/08/17 00:18:49;;;;;;;5.13;3.10;;;;;;;;;;4957087;29;20031;-74
2023/08/17 00:21:14;;;;;;;4.35;2.75;;;;;;;;;;4954879;28;20389;-74
2023/08/17 00:23:39;;;;;;;6.57;3.42;;;;;;;;;;4976491;28;20026;-74
2023/08/17 00:26:05;;;;;;;10.50;3.58;;;;;;;;;;4972319;28;20019;-74
2023/08/17 00:28:30;;;;;;;5.03;3.30;;;;;;;;;;4959165;28;20027;-74
2023/08/17 00:30:55;;;;;;;4.72;3.10;;;;;;;;;;4975144;28;20022;-74
2023/08/17 00:33:20;;;;;;;11.30;4.88;;;;;;;;;;4959193;28;20145;-74
2023/08/17 00:35:46;;;;;;;5.35;3.35;;;;;;;;;;4960855;28;20054;-74
2023/08/17 00:38:12;;;;;;;5.13;3.38;;;;;;;;;;4939541;29;20031;-74
2023/08/17 00:40:37;;;;;;;5.30;3.17;;;;;;;;;;4967741;28;20025;-74
2023/08/17 00:43:03;;;;;;;4.53;2.72;;;;;;;;;;4958838;28;20118;-74
2023/08/17 00:45:28;;;;;;;6.75;3.70;;;;;;;;;;4957193;28;20038;-74
2023/08/17 00:47:58;;;;;;;4.57;3.05;;;;;;;;;;4991337;28;20492;-74
2023/08/17 00:50:25;;;;;;;5.18;3.20;;;;;;;;;;4989358;28;20026;-74
2023/08/17 00:52:51;;;;;;;5.22;3.80;;;;;;;;;;4958074;28;20533;-74
2023/08/17 00:55:17;;;;;;;5.03;3.70;;;;;;;;;;4958573;28;20042;-74
2023/08/17 00:57:42;;;;;;;4.93;3.13;;;;;;;;;;4947209;28;20023;-74
2023/08/17 01:00:11;;;;;;;6.93;3.67;;;;;;;;;;4956346;28;20022;-74
2023/08/17 01:02:36;;;;;;;4.78;3.05;;;;;;;;;;4946885;28;20022;-74
2023/08/17 01:05:02;;;;;;;7.68;4.93;;;;;;;;;;4957472;28;20034;-74
2023/08/17 01:07:27;;;;;;;4.10;3.20;;;;;;;;;;4958053;28;20033;-74
2023/08/17 01:09:53;;;;;;;4.00;2.50;;;;;;;;;;4975654;28;20441;-74
2023/08/17 01:12:30;;;;;;;6.28;3.20;;;;;;;;;;4975114;28;20074;-74
2023/08/17 01:14:55;;;;;;;;;;;;;;;;;;4964591;28;20057;-74
2023/08/17 01:17:33;;;;;;;6.63;3.83;;;;;;;;;;4982286;28;20017;-74
2023/08/17 01:19:59;;;;;;;4.95;3.08;;;;;;;;;;4974475;28;20493;-74
2023/08/17 01:22:24;;;;;;;5.68;4.03;;;;;;;;;;4973958;28;20027;-74
2023/08/17 01:24:50;;;;;;;11.48;3.83;;;;;;;;;;4968986;28;20031;-74
2023/08/17 01:27:15;;;;;;;6.75;3.70;;;;;;;;;;4958096;28;20019;-74
2023/08/17 01:29:41;;;;;;;5.82;3.50;;;;;;;;;;4974905;28;20499;-74
2023/08/17 01:32:10;;;;;;;8.63;4.13;;;;;;;;;;4975352;28;20022;-74
2023/08/17 01:34:40;;;;;;;8.70;4.25;;;;;;;;;;4973360;28;20026;-74
2023/08/17 01:37:07;;;;;;;7.40;4.60;;;;;;;;;;4974107;28;20548;-74
2023/08/17 01:39:37;;;;;;;10.30;4.85;;;;;;;;;;4957831;28;20038;-74
2023/08/17 01:42:04;;;;;;;8.73;4.82;;;;;;;;;;4974230;28;20157;-75
2023/08/17 01:44:30;;;;;;;9.43;4.28;;;;;;;;;;4970547;28;20031;-74
2023/08/17 01:46:55;;;;;;;7.60;3.58;;;;;;;;;;4957117;28;20433;-74
2023/08/17 01:49:21;;;;;;;9.38;4.45;;;;;;;;;;4957596;28;20030;-74
2023/08/17 01:51:46;;;;;;;7.35;4.35;;;;;;;;;;4960958;28;20490;-75
2023/08/17 01:54:11;;;;;;;7.78;4.28;;;;;;;;;;4955135;28;20035;-74
2023/08/17 01:56:37;;;;;;;10.40;4.60;;;;;;;;;;4938392;29;20034;-74
2023/08/17 01:59:02;;;;;;;9.82;5.10;;;;;;;;;;4955089;28;20027;-74
2023/08/17 02:01:28;;;;;;;6.75;3.67;;;;;;;;;;4944418;28;20393;-74
2023/08/17 02:03:53;;;;;;;8.48;4.28;;;;;;;;;;4973884;28;20038;-74
2023/08/17 02:06:18;;;;;;;12.93;5.35;;;;;;;;;;4940878;28;20204;-74
2023/08/17 02:08:44;;;;;;;10.05;4.43;;;;;;;;;;4973879;28;20038;-74
2023/08/17 02:11:10;;;;;;;9.68;3.80;;;;;;;;;;4957044;28;20058;-74
2023/08/17 02:13:36;;;;;;;7.25;3.45;;;;;;;;;;4949026;28;20438;-74
2023/08/17 02:16:02;;;;;;;6.70;4.65;;;;;;;;;;4957087;28;20074;-74
2023/08/17 02:18:30;;;;;;;8.48;4.68;;;;;;;;;;4947319;28;20023;-74
2023/08/17 02:20:56;;;;;;;5.85;4.00;;;;;;;;;;4994617;28;20026;-74
2023/08/17 02:23:21;;;;;;;7.53;4.68;;;;;;;;;;4982804;28;20044;-74
2023/08/17 02:25:46;;;;;;;9.52;5.43;;;;;;;;;;4958165;28;20031;-74
2023/08/17 02:28:11;;;;;;;5.95;3.85;;;;;;;;;;4944488;29;20030;-74
2023/08/17 02:30:37;;;;;;;5.82;3.17;;;;;;;;;;4965353;28;20388;-74
2023/08/17 02:33:02;;;;;;;8.32;4.60;;;;;;;;;;4981007;28;20031;-74
2023/08/17 02:35:27;;;;;;;13.32;4.90;;;;;;;;;;4965731;28;20034;-74
2023/08/17 02:37:53;;;;;;;8.40;4.45;;;;;;;;;;5000424;28;20484;-74
2023/08/17 02:40:18;;;;;;;8.50;4.57;;;;;;;;;;5000271;28;20473;-74
2023/08/17 02:42:43;;;;;;;10.20;4.60;;;;;;;;;;4965199;28;20034;-74
2023/08/17 02:45:09;;;;;;;7.68;4.35;;;;;;;;;;4962978;28;20031;-74
2023/08/17 02:47:34;;;;;;;7.43;3.85;;;;;;;;;;4956895;28;20476;-75
2023/08/17 02:50:00;;;;;;;6.47;4.00;;;;;;;;;;4979739;28;20054;-74
2023/08/17 02:52:25;;;;;;;9.77;4.38;;;;;;;;;;4957453;28;20485;-74
2023/08/17 02:54:50;;;;;;;9.63;5.63;;;;;;;;;;4944003;29;20039;-74
2023/08/17 02:57:18;;;;;;;9.85;4.70;;;;;;;;;;4967773;28;20033;-74
2023/08/17 02:59:43;;;;;;;10.05;4.95;;;;;;;;;;4995580;28;20040;-74
2023/08/17 03:02:08;;;;;;;9.60;4.40;;;;;;;;;;4963003;28;20031;-75
2023/08/17 03:04:34;;;;;;;6.40;4.18;;;;;;;;;;4963341;28;20030;-74
2023/08/17 03:06:59;;;;;;;8.93;4.47;;;;;;;;;;4959188;28;20058;-74
2023/08/17 03:09:24;;;;;;;7.63;4.78;;;;;;;;;;4979037;28;20030;-74
2023/08/17 03:11:50;;;;;;;10.45;4.35;;;;;;;;;;4960536;28;20077;-74
2023/08/17 03:14:15;;;;;;;7.93;4.10;;;;;;;;;;4980314;28;20031;-74
2023/08/17 03:16:40;;;;;;;6.57;3.95;;;;;;;;;;4980526;28;20031;-74
2023/08/17 03:19:07;;;;;;;10.38;4.25;;;;;;;;;;4980281;28;20469;-74
2023/08/17 03:21:33;;;;;;;5.15;3.13;;;;;;;;;;4981032;28;20370;-75
2023/08/17 03:23:58;;;;;;;9.38;3.85;;;;;;;;;;4979478;28;20030;-74
2023/08/17 03:26:23;;;;;;;5.38;3.45;;;;;;;;;;4981147;28;20019;-74
2023/08/17 03:28:49;;;;;;;7.75;4.30;;;;;;;;;;4976945;28;20022;-74
2023/08/17 03:31:14;;;;;;;8.20;4.85;;;;;;;;;;4979340;28;20093;-74
2023/08/17 03:33:40;;;;;;;12.43;6.00;;;;;;;;;;4944381;28;20073;-74
2023/08/17 03:36:06;;;;;;;9.05;3.85;;;;;;;;;;4976950;28;20405;-74
2023/08/17 03:38:31;;;;;;;7.40;3.92;;;;;;;;;;4976075;28;20029;-74
2023/08/17 03:40:56;;;;;;;7.65;4.30;;;;;;;;;;4960407;28;20027;-74
2023/08/17 03:43:21;;;;;;;9.13;2.90;;;;;;;;;;4977253;28;20463;-74
2023/08/17 03:45:47;;;;;;;8.07;4.65;;;;;;;;;;4976867;28;20497;-74
2023/08/17 03:48:12;;;;;;;6.55;4.40;;;;;;;;;;4943988;28;20035;-74
2023/08/17 03:50:37;;;;;;;10.98;4.38;;;;;;;;;;4975970;28;20026;-74
2023/08/17 03:53:03;;;;;;;7.65;4.05;;;;;;;;;;4975782;28;20035;-74
2023/08/17 03:55:28;;;;;;;6.20;4.38;;;;;;;;;;4960068;28;20034;-74
2023/08/17 03:57:53;;;;;;;6.45;3.63;;;;;;;;;;4959179;28;20035;-74
2023/08/17 04:00:19;;;;;;;7.55;3.85;;;;;;;;;;4975817;28;20374;-74
2023/08/17 04:02:44;;;;;;;6.95;3.88;;;;;;;;;;4975921;28;20027;-74
2023/08/17 04:05:09;;;;;;;5.90;3.85;;;;;;;;;;4976878;28;20050;-74
2023/08/17 04:07:36;;;;;;;7.47;3.22;;;;;;;;;;4958805;28;20172;-74
2023/08/17 04:10:02;;;;;;;7.13;4.05;;;;;;;;;;4959373;28;20026;-74
2023/08/17 04:12:27;;;;;;;5.45;3.30;;;;;;;;;;4991608;28;20516;-74
2023/08/17 04:14:53;;;;;;;7.43;3.63;;;;;;;;;;4959201;28;20053;-74
2023/08/17 04:17:18;;;;;;;7.28;3.78;;;;;;;;;;4976569;28;20062;-74
2023/08/17 04:19:43;;;;;;;8.95;3.90;;;;;;;;;;4959263;28;20030;-74
2023/08/17 04:22:09;;;;;;;4.75;3.47;;;;;;;;;;4975180;28;20038;-74
2023/08/17 04:24:35;;;;;;;5.78;3.67;;;;;;;;;;4959094;28;20023;-74
2023/08/17 04:27:00;;;;;;;5.63;3.28;;;;;;;;;;4976323;28;20027;-74
2023/08/17 04:29:25;;;;;;;7.25;4.03;;;;;;;;;;4974762;28;20034;-74
2023/08/17 04:31:51;;;;;;;7.50;3.78;;;;;;;;;;4976283;28;20033;-74
2023/08/17 04:34:16;;;;;;;7.47;4.00;;;;;;;;;;4974975;28;20505;-74
2023/08/17 04:36:41;;;;;;;5.70;4.15;;;;;;;;;;4959018;28;20023;-74
2023/08/17 04:39:08;;;;;;;8.98;4.22;;;;;;;;;;4976157;28;20428;-74
2023/08/17 04:41:33;;;;;;;7.47;4.00;;;;;;;;;;4959101;28;20031;-74
2023/08/17 04:43:58;;;;;;;9.48;5.28;;;;;;;;;;4975556;28;20049;-74
2023/08/17 04:46:23;;;;;;;9.75;4.57;;;;;;;;;;4971340;28;20022;-74
2023/08/17 04:48:49;;;;;;;7.80;4.05;;;;;;;;;;4957516;28;20370;-74
2023/08/17 04:51:15;;;;;;;9.48;5.05;;;;;;;;;;4958682;28;20085;-74
2023/08/17 04:53:40;;;;;;;10.05;5.53;;;;;;;;;;4941830;28;20494;-74
2023/08/17 04:56:06;;;;;;;9.05;4.97;;;;;;;;;;4974480;28;20089;-74
2023/08/17 04:58:31;;;;;;;10.05;4.97;;;;;;;;;;4942636;28;20023;-74
2023/08/17 05:00:56;;;;;;;8.05;4.32;;;;;;;;;;4977676;28;20455;-74
2023/08/17 05:03:22;;;;;;;9.38;5.10;;;;;;;;;;4995048;28;20024;-74
2023/08/17 05:05:47;;;;;;;9.73;4.25;;;;;;;;;;4994592;28;20416;-75
2023/08/17 05:08:13;;;;;;;10.18;4.30;;;;;;;;;;4977586;28;20026;-74
2023/08/17 05:10:39;;;;;;;9.13;4.82;;;;;;;;;;4977865;28;20039;-74
2023/08/17 05:13:07;;;;;;;10.10;4.45;;;;;;;;;;4977565;28;20031;-74
2023/08/17 05:15:32;;;;;;;10.02;5.50;;;;;;;;;;4995022;28;20068;-75
2023/08/17 05:17:57;;;;;;;7.95;4.53;;;;;;;;;;4994491;28;20050;-74
2023/08/17 05:20:23;;;;;;;10.98;4.95;;;;;;;;;;4980447;28;20023;-74
2023/08/17 05:22:48;;;;;;;8.63;4.57;;;;;;;;;;4974669;28;20030;-74
2023/08/17 05:25:13;;;;;;;8.98;4.65;;;;;;;;;;4957848;28;20027;-74
2023/08/17 05:27:39;;;;;;;9.70;5.15;;;;;;;;;;4974360;28;20505;-74
2023/08/17 05:30:05;;;;;;;9.52;3.90;;;;;;;;;;4958076;28;20363;-74
2023/08/17 05:32:30;;;;;;;8.32;4.80;;;;;;;;;;4957782;28;20037;-74
2023/08/17 05:34:56;;;;;;;10.45;4.47;;;;;;;;;;4974077;28;20027;-74
2023/08/17 05:37:22;;;;;;;8.55;4.65;;;;;;;;;;4974788;28;20023;-74
2023/08/17 05:39:47;;;;;;;12.32;4.13;;;;;;;;;;4975126;28;20031;-75
2023/08/17 05:42:12;;;;;;;10.82;4.57;;;;;;;;;;4974054;28;20023;-74
2023/08/17 05:44:38;;;;;;;11.68;5.25;;;;;;;;;;4957888;28;20018;-75
2023/08/17 05:47:06;;;;;;;9.63;4.10;;;;;;;;;;4974768;28;20424;-74
2023/08/17 05:49:31;;;;;;;10.35;4.82;;;;;;;;;;4941049;28;20050;-74
2023/08/17 05:51:56;;;;;;;8.95;4.30;;;;;;;;;;4974375;28;20030;-74
2023/08/17 05:54:22;;;;;;;11.48;4.68;;;;;;;;;;4957436;28;20029;-74
2023/08/17 05:56:47;;;;;;;6.65;4.68;;;;;;;;;;4957457;28;20026;-74
2023/08/17 05:59:13;;;;;;;9.43;5.00;;;;;;;;;;4957518;28;20085;-74
2023/08/17 06:01:41;;;;;;;10.55;4.68;;;;;;;;;;4989387;28;20027;-74
2023/08/17 06:04:07;;;;;;;8.35;4.85;;;;;;;;;;4974706;28;20111;-75
2023/08/17 06:06:32;;;;;;;9.20;4.90;;;;;;;;;;4957379;28;20146;-75
2023/08/17 06:08:57;;;;;;;9.50;4.60;;;;;;;;;;4973232;28;20038;-75
2023/08/17 06:11:23;;;;;;;11.73;5.13;;;;;;;;;;4956806;28;20026;-75
2023/08/17 06:13:49;;;;;;;10.68;4.90;;;;;;;;;;4974506;28;20031;-75
2023/08/17 06:16:14;;;;;;;11.18;4.72;;;;;;;;;;4974651;28;20080;-75
2023/08/17 06:18:40;;;;;;;7.03;4.35;;;;;;;;;;4957026;28;20038;-74
2023/08/17 06:21:05;;;;;;;9.90;5.18;;;;;;;;;;4973967;28;20023;-75
2023/08/17 06:23:30;;;;;;;6.93;4.43;;;;;;;;;;4957117;28;20038;-76
2023/08/17 06:25:57;;;;;;;8.02;3.80;;;;;;;;;;4973305;28;20400;-75
2023/08/17 06:28:22;;;;;;;7.50;4.47;;;;;;;;;;4958472;28;20401;-75
2023/08/17 06:30:52;;;;;;;8.13;4.30;;;;;;;;;;4973936;28;20038;-75
2023/08/17 06:33:17;;;;;;;8.02;3.90;;;;;;;;;;4974079;28;20392;-75
2023/08/17 06:35:43;;;;;;;10.60;4.68;;;;;;;;;;4957300;28;20023;-75
2023/08/17 06:38:08;;;;;;;8.68;3.95;;;;;;;;;;4957593;28;20073;-75
2023/08/17 06:40:34;;;;;;;6.53;3.90;;;;;;;;;;4973428;28;20030;-75
2023/08/17 06:42:59;;;;;;;8.73;4.20;;;;;;;;;;4974750;28;20418;-75
2023/08/17 06:45:24;;;;;;;8.43;3.83;;;;;;;;;;4957287;28;20078;-75
2023/08/17 06:47:50;;;;;;;6.88;4.22;;;;;;;;;;4974589;28;20081;-75
2023/08/17 06:50:15;;;;;;;6.70;3.65;;;;;;;;;;4972755;28;20109;-74
2023/08/17 06:52:40;;;;;;;5.95;3.63;;;;;;;;;;4972923;28;20485;-75
2023/08/17 06:55:06;;;;;;;7.93;3.42;;;;;;;;;;4974225;28;20457;-75
2023/08/17 06:57:31;;;;;;;4.88;3.30;;;;;;;;;;4974209;28;20030;-75
2023/08/17 06:59:56;;;;;;;7.97;3.70;;;;;;;;;;4974318;28;20042;-75
2023/08/17 07:02:22;;;;;;;5.13;2.97;;;;;;;;;;4973015;28;20077;-75
2023/08/17 07:04:47;;;;;;;6.03;3.40;;;;;;;;;;4976764;28;20065;-76
2023/08/17 07:07:14;;;;;;;4.13;2.92;;;;;;;;;;4976716;28;20106;-75
2023/08/17 07:09:39;;;;;;;3.90;3.10;;;;;;;;;;4944869;28;20026;-75
2023/08/17 07:12:04;;;;;;;4.50;2.70;;;;;;;;;;4993021;28;20034;-75
2023/08/17 07:14:30;;;;;;;6.03;3.15;;;;;;;;;;4977643;28;20097;-75
2023/08/17 07:16:55;;;;;;;6.13;3.00;;;;;;;;;;4977736;28;20489;-74
2023/08/17 07:19:22;;;;;;;3.78;2.95;;;;;;;;;;4977404;28;20039;-75
2023/08/17 07:21:47;;;;;;;4.78;2.53;;;;;;;;;;4960424;28;20034;-75
2023/08/17 07:24:13;;;;;;;6.57;2.88;;;;;;;;;;4960150;28;20030;-75
2023/08/17 07:26:39;;;;;;;4.32;2.72;;;;;;;;;;4975989;28;20030;-75
2023/08/17 07:29:04;;;;;;;3.10;2.30;;;;;;;;;;4960208;28;20117;-75
2023/08/17 07:31:29;;;;;;;3.15;2.35;;;;;;;;;;4959734;28;20058;-75
2023/08/17 07:33:55;;;;;;;3.03;2.20;;;;;;;;;;4975499;28;20022;-75
2023/08/17 07:36:20;;;;;;;5.53;2.75;;;;;;;;;;4959636;28;20038;-75
2023/08/17 07:38:45;;;;;;;2.72;2.38;;;;;;;;;;4977289;28;20450;-75
2023/08/17 07:41:10;;;;;;;3.75;2.65;;;;;;;;;;4976152;28;20477;-75
2023/08/17 07:43:36;;;;;;;5.18;2.55;;;;;;;;;;4959441;28;20027;-75
2023/08/17 07:46:01;;;;;;;6.57;2.60;;;;;;;;;;4959324;28;20019;-75
2023/08/17 07:48:26;;;;;;;5.18;2.40;;;;;;;;;;4959496;28;20077;-76
2023/08/17 07:50:53;;;;;;;5.82;2.25;;;;;;;;;;4976998;28;20061;-76
2023/08/17 07:53:19;;;;;;;6.53;2.60;;;;;;;;;;4976864;28;20109;-74
2023/08/17 07:55:44;;;;;;;2.85;2.28;;;;;;;;;;4991418;28;20030;-74
2023/08/17 07:58:10;;;;;;;2.85;2.10;;;;;;;;;;4975746;28;20085;-73
2023/08/17 08:00:35;;;;;;;4.55;2.38;;;;;;;;;;4976438;28;20019;-72
2023/08/17 08:03:00;;;;;;;4.90;2.10;;;;;;;;;;4975650;28;20114;-73
2023/08/17 08:05:26;;;;;;;2.88;2.28;;;;;;;;;;4975534;28;20038;-72
2023/08/17 08:07:51;;;;;;;3.22;2.10;;;;;;;;;;4975469;28;20465;-73
2023/08/17 08:10:16;;;;;;;4.70;1.95;;;;;;;;;;4975734;28;20026;-74
2023/08/17 08:12:42;;;;;;;4.47;2.45;;;;;;;;;;4977349;28;20034;-73
2023/08/17 08:15:07;;;;;;;2.58;2.30;;;;;;;;;;4975816;28;20027;-72
2023/08/17 08:17:33;;;;;;;3.10;2.40;;;;;;;;;;4975477;28;20035;-73
2023/08/17 08:19:59;;;;;;;3.03;1.90;;;;;;;;;;4959496;28;20393;-73
2023/08/17 08:22:24;;;;;;;7.45;2.67;;;;;;;;;;4977402;28;20038;-73
2023/08/17 08:24:49;;;;;;;3.30;2.80;;;;;;;;;;4975081;28;20019;-74
2023/08/17 08:27:15;;;;;;;3.35;2.50;;;;;;;;;;4959393;28;20030;-73
2023/08/17 08:29:40;;;;;;;3.35;2.13;;;;;;;;;;4975784;28;20047;-75
2023/08/17 08:32:11;;;;;;;3.53;1.95;;;;;;;;;;4977772;28;20114;-75
2023/08/17 08:34:36;;;;;;;2.42;2.10;;;;;;;;;;4975673;28;20082;-74
2023/08/17 08:37:01;;;;;;;3.95;2.35;;;;;;;;;;4977046;28;20023;-74
2023/08/17 08:39:27;;;;;;;3.55;2.25;;;;;;;;;;4979150;28;20022;-75
2023/08/17 08:41:53;;;;;;;5.43;2.40;;;;;;;;;;4979656;28;20149;-74
2023/08/17 08:44:18;;;;;;;5.78;2.70;;;;;;;;;;4978880;28;20077;-75
2023/08/17 08:46:44;;;;;;;3.90;2.45;;;;;;;;;;4992855;28;20451;-75
2023/08/17 08:49:10;;;;;;;5.00;2.70;;;;;;;;;;4992091;28;20041;-73
2023/08/17 08:51:38;;;;;;;4.93;2.63;;;;;;;;;;4976034;28;20102;-74
2023/08/17 08:54:05;;;;;;;4.43;3.00;;;;;;;;;;4976639;28;20553;-74
2023/08/17 08:56:32;;;;;;;5.63;3.58;;;;;;;;;;4977707;28;20481;-73
2023/08/17 08:58:59;;;;;;;3.95;2.42;;;;;;;;;;4978237;28;20019;-74
2023/08/17 09:01:24;;;;;;;6.25;2.45;;;;;;;;;;4991533;28;20497;-73
2023/08/17 09:03:50;;;;;;;3.20;2.70;;;;;;;;;;4959174;28;20058;-73
2023/08/17 09:06:16;;;;;;;3.10;2.53;;;;;;;;;;4958034;28;20069;-73
2023/08/17 09:08:41;;;;;;;3.75;2.22;;;;;;;;;;4958506;28;20027;-73
2023/08/17 09:11:06;;;;;;;3.42;2.47;;;;;;;;;;4973946;28;20023;-73
2023/08/17 09:13:32;;;;;;;5.00;2.70;;;;;;;;;;4974486;28;20037;-73
2023/08/17 09:15:59;;;;;;;4.65;2.60;;;;;;;;;;4971106;28;20094;-74
2023/08/17 09:18:24;;;;;;;5.13;2.80;;;;;;;;;;4970398;28;20046;-74
2023/08/17 09:20:51;;;;;;;8.30;1.90;;;;;;;;;;4971379;28;20452;-74
2023/08/17 09:23:21;;;;;;;3.30;2.00;;;;;;;;;;4970962;28;20110;-74
2023/08/17 09:25:48;;;;;;;4.07;2.50;;;;;;;;;;4969974;28;20559;-74
2023/08/17 09:28:15;;;;;;;3.67;2.00;;;;;;;;;;4971092;28;20027;-75
2023/08/17 09:30:54;;;;;;;2.70;2.17;;;;;;;;;;4971080;28;20114;-74
2023/08/17 09:33:24;;;;;;;3.25;2.00;;;;;;;;;;4955341;28;20054;-74
2023/08/17 09:35:50;;;;;;;4.90;2.33;;;;;;;;;;4972390;28;20023;-74
2023/08/17 09:38:16;;;;;;;3.67;2.10;;;;;;;;;;4971639;28;20027;-74
2023/08/17 09:40:42;;;;;;;2.97;1.63;;;;;;;;;;4922882;29;20444;-74
2023/08/17 09:43:08;;;;;;;4.75;2.15;;;;;;;;;;4938860;29;20039;-73
2023/08/17 09:45:35;;;;;;;2.95;1.88;;;;;;;;;;4970528;28;20500;-74
2023/08/17 09:48:01;;;;;;;3.60;2.35;;;;;;;;;;4954375;28;20038;-74
2023/08/17 09:50:26;;;;;;;2.78;2.10;;;;;;;;;;4937923;29;20023;-74
2023/08/17 09:52:55;;;;;;;5.03;2.05;;;;;;;;;;4954095;29;20485;-74
2023/08/17 09:55:22;;;;;;;4.68;2.65;;;;;;;;;;4938379;29;20038;-74
2023/08/17 09:57:50;;;;;;;4.47;2.33;;;;;;;;;;4954218;29;20045;-74
2023/08/17 10:00:15;;;;;;;5.20;2.95;;;;;;;;;;4970257;28;20033;-72
2023/08/17 10:02:42;;;;;;;3.55;1.88;;;;;;;;;;4969887;28;20023;-75
2023/08/17 10:05:10;;;;;;;2.10;1.88;;;;;;;;;;4970233;28;20019;-74
2023/08/17 10:07:38;;;;;;;2.67;1.98;;;;;;;;;;4938540;29;20033;-74
2023/08/17 10:10:06;;;;;;;4.90;2.45;;;;;;;;;;4969654;28;20114;-74
2023/08/17 10:12:36;;;;;;;3.75;2.20;;;;;;;;;;4970010;28;20038;-73
2023/08/17 10:15:03;;;;;;;3.15;1.88;;;;;;;;;;4970363;28;20027;-74
2023/08/17 10:17:44;;;;;;;3.08;1.98;;;;;;;;;;4970180;28;20500;-74
2023/08/17 10:20:10;;;;;;;5.38;2.00;;;;;;;;;;4954977;29;20023;-74
2023/08/17 10:22:45;;;;;;;3.00;2.03;;;;;;;;;;4938603;29;20050;-74
2023/08/17 10:25:12;;;;;;;5.75;1.88;;;;;;;;;;4955321;29;20054;-74
2023/08/17 10:27:37;;;;;;;2.88;1.45;;;;;;;;;;4970014;28;20370;-75
2023/08/17 10:30:03;;;;;;;3.20;2.13;;;;;;;;;;4955119;29;20024;-74
2023/08/17 10:32:29;;;;;;;3.38;1.80;;;;;;;;;;4969488;28;20031;-74
2023/08/17 10:34:54;;;;;;;4.15;1.90;;;;;;;;;;4969928;28;20027;-74
2023/08/17 10:37:20;;;;;;;3.53;1.45;;;;;;;;;;4971297;28;20397;-74
2023/08/17 10:39:48;;;;;;;3.97;2.05;;;;;;;;;;4959173;28;20023;-74
2023/08/17 10:42:14;;;;;;;3.55;1.90;;;;;;;;;;4973204;28;20019;-74
2023/08/17 10:44:47;;;;;;;1.95;1.80;;;;;;;;;;4973581;28;20027;-74
2023/08/17 10:47:19;;;;;;;3.33;1.90;;;;;;;;;;4958756;29;20026;-74
2023/08/17 10:49:45;;;;;;;4.45;1.98;;;;;;;;;;4973639;28;20572;-74
2023/08/17 10:52:11;;;;;;;4.90;2.17;;;;;;;;;;4973669;28;20190;-74
2023/08/17 10:54:38;;;;;;;4.25;2.03;;;;;;;;;;4995571;23;20168;-72
2023/08/17 10:57:28;;;;;;;2.67;1.88;;;;;;;;;;5018521;28;20475;-72
2023/08/17 11:00:13;;;;;;;3.42;1.90;;;;;;;;;;5036173;28;20129;-72
2023/08/17 11:02:39;;;;;;;3.10;1.83;;;;;;;;;;5018445;28;20021;-73
2023/08/17 11:05:05;;;;;;;3.63;2.05;;;;;;;;;;5026171;28;20412;-73
2023/08/17 11:07:44;;;;;;;4.30;1.77;;;;;;;;;;5035506;28;20139;-72
2023/08/17 11:10:27;;;;;;;6.40;2.03;;;;;;;;;;5035993;28;20549;-72
2023/08/17 11:12:56;;;;;;;3.20;2.00;;;;;;;;;;5034609;28;20059;-72
2023/08/17 11:15:22;;;;;;;3.97;2.45;;;;;;;;;;5017944;28;20044;-72
2023/08/17 11:17:47;;;;;;;4.63;2.38;;;;;;;;;;5034548;28;20052;-72
2023/08/17 11:20:13;;;;;;;4.60;2.17;;;;;;;;;;5034133;28;20088;-72
2023/08/17 11:22:38;;;;;;;9.63;3.03;;;;;;;;;;5035922;28;20102;-72
2023/08/17 11:25:04;;;;;;;3.20;2.10;;;;;;;;;;5034474;28;20489;-72
2023/08/17 11:27:30;;;;;;;4.35;2.25;;;;;;;;;;5034413;28;20032;-72
2023/08/17 11:29:55;;;;;;;5.03;2.55;;;;;;;;;;5017907;28;20025;-73
2023/08/17 11:32:21;;;;;;;4.93;2.15;;;;;;;;;;5034445;28;20037;-72
2023/08/17 11:34:46;;;;;;;5.50;1.88;;;;;;;;;;5017173;28;20403;-72
2023/08/17 11:37:11;;;;;;;2.80;2.20;;;;;;;;;;5017813;28;20033;-72
2023/08/17 11:39:37;;;;;;;3.42;2.20;;;;;;;;;;5034542;28;20100;-72
2023/08/17 11:42:02;;;;;;;4.35;2.05;;;;;;;;;;5035598;28;20021;-72
2023/08/17 11:44:28;;;;;;;4.15;2.35;;;;;;;;;;5035274;28;20092;-71
2023/08/17 11:46:53;;;;;;;5.35;2.40;;;;;;;;;;5034861;28;20479;-71
2023/08/17 11:49:18;;;;;;;3.65;2.25;;;;;;;;;;5033754;28;20108;-71
2023/08/17 11:51:44;;;;;;;3.83;2.20;;;;;;;;;;5035318;28;20545;-71
2023/08/17 11:54:09;;;;;;;7.13;2.10;;;;;;;;;;5034900;28;20117;-72
2023/08/17 11:56:36;;;;;;;4.13;1.90;;;;;;;;;;5035192;28;20029;-71
2023/08/17 11:59:11;;;;;;;6.90;2.00;;;;;;;;;;5033875;28;20386;-71
2023/08/17 12:01:36;;;;;;;4.22;2.78;;;;;;;;;;5017687;28;20026;-72
2023/08/17 12:04:04;;;;;;;3.80;2.33;;;;;;;;;;5033786;28;20036;-71
2023/08/17 12:06:30;;;;;;;5.30;2.28;;;;;;;;;;5033248;28;20442;-72
2023/08/17 12:08:55;;;;;;;5.18;2.30;;;;;;;;;;5034859;28;20083;-72
2023/08/17 12:11:23;;;;;;;5.70;2.55;;;;;;;;;;5034911;28;20021;-71
2023/08/17 12:13:52;;;;;;;4.07;2.30;;;;;;;;;;5016989;28;20147;-71
2023/08/17 12:16:18;;;;;;;4.78;2.28;;;;;;;;;;5016667;28;20032;-71
2023/08/17 12:18:46;;;;;;;7.78;2.08;;;;;;;;;;5015498;28;21024;-71
2023/08/17 12:21:11;;;;;;;4.78;2.20;;;;;;;;;;5018346;28;20025;-71
2023/08/17 12:23:36;;;;;;;4.35;2.70;;;;;;;;;;5016801;28;20048;-71
2023/08/17 12:26:01;;;;;;;4.65;1.90;;;;;;;;;;5034798;28;20394;-71
2023/08/17 12:28:27;;;;;;;6.90;2.67;;;;;;;;;;5034511;28;20021;-71
2023/08/17 12:31:03;;;;;;;6.35;2.70;;;;;;;;;;5033992;28;20036;-71
2023/08/17 12:33:29;;;;;;;4.28;2.33;;;;;;;;;;5034400;28;20025;-71
2023/08/17 12:35:54;;;;;;;3.95;2.42;;;;;;;;;;5034566;28;20037;-71
2023/08/17 12:38:20;;;;;;;4.80;2.20;;;;;;;;;;5033200;28;20021;-71
2023/08/17 12:40:45;;;;;;;6.45;2.67;;;;;;;;;;5032539;28;20072;-71
2023/08/17 12:43:10;;;;;;;4.55;3.40;;;;;;;;;;5033339;28;20025;-71
2023/08/17 12:45:36;;;;;;;3.65;2.22;;;;;;;;;;5034235;28;20021;-71
2023/08/17 12:48:01;;;;;;;4.50;2.63;;;;;;;;;;5034171;28;20387;-71
2023/08/17 12:50:26;;;;;;;5.68;2.20;;;;;;;;;;5034394;28;20021;-71
2023/08/17 12:52:51;;;;;;;6.15;2.45;;;;;;;;;;5032714;28;20052;-71
2023/08/17 12:55:17;;;;;;;4.60;2.20;;;;;;;;;;5034116;28;20112;-71
2023/08/17 12:57:42;;;;;;;4.78;2.40;;;;;;;;;;5033496;28;20041;-71
2023/08/17 13:00:08;;;;;;;5.97;2.80;;;;;;;;;;5034351;28;20526;-72
2023/08/17 13:02:34;;;;;;;4.32;2.72;;;;;;;;;;5033213;28;20022;-72
2023/08/17 13:04:59;;;;;;;5.97;2.45;;;;;;;;;;5015953;28;20018;-71
2023/08/17 13:07:24;;;;;;;3.75;2.75;;;;;;;;;;5033412;28;20025;-71
2023/08/17 13:09:49;;;;;;;6.10;2.80;;;;;;;;;;5015962;28;20025;-71
2023/08/17 13:12:15;;;;;;;4.57;2.80;;;;;;;;;;5033645;28;20109;-71
2023/08/17 13:14:40;;;;;;;4.07;2.28;;;;;;;;;;5032461;28;20391;-71
2023/08/17 13:17:05;;;;;;;5.00;2.65;;;;;;;;;;5033644;28;20070;-71
2023/08/17 13:19:31;;;;;;;5.13;2.90;;;;;;;;;;5033117;28;20028;-71
2023/08/17 13:21:56;;;;;;;4.75;2.72;;;;;;;;;;5033577;28;20067;-71
2023/08/17 13:24:21;;;;;;;5.22;3.28;;;;;;;;;;5033777;28;20084;-71
2023/08/17 13:26:47;;;;;;;4.47;2.78;;;;;;;;;;5033582;28;20045;-73
2023/08/17 13:29:12;;;;;;;5.32;3.00;;;;;;;;;;5033391;28;20026;-73
2023/08/17 13:31:37;;;;;;;5.75;2.70;;;;;;;;;;5015257;28;20025;-73
2023/08/17 13:34:03;;;;;;;8.07;3.33;;;;;;;;;;5033249;28;20045;-73
2023/08/17 13:36:28;;;;;;;6.07;2.92;;;;;;;;;;5032247;28;20060;-73
2023/08/17 13:38:53;;;;;;;5.95;3.15;;;;;;;;;;5032049;28;20021;-73
2023/08/17 13:41:19;;;;;;;5.15;2.90;;;;;;;;;;5032142;28;20032;-74
2023/08/17 13:43:44;;;;;;;5.07;2.67;;;;;;;;;;5032696;28;20030;-74
2023/08/17 13:46:09;;;;;;;6.32;3.40;;;;;;;;;;5033098;28;20472;-74
2023/08/17 13:48:35;;;;;;;5.43;3.55;;;;;;;;;;5033273;28;20401;-73
2023/08/17 13:51:00;;;;;;;7.78;2.45;;;;;;;;;;5031909;28;20029;-74
2023/08/17 13:53:25;;;;;;;5.55;2.75;;;;;;;;;;5032407;28;20495;-73
2023/08/17 13:55:51;;;;;;;7.38;2.83;;;;;;;;;;5032673;28;20131;-73
2023/08/17 13:58:16;;;;;;;5.80;2.90;;;;;;;;;;5032982;28;20021;-73
2023/08/17 14:00:42;;;;;;;6.15;3.13;;;;;;;;;;5031253;28;20017;-73
2023/08/17 14:03:07;;;;;;;4.38;3.13;;;;;;;;;;5031812;28;20037;-73
2023/08/17 14:05:33;;;;;;;3.78;2.42;;;;;;;;;;5031643;28;20449;-73
2023/08/17 14:07:58;;;;;;;8.40;3.00;;;;;;;;;;5031903;28;20372;-73
2023/08/17 14:10:23;;;;;;;6.55;3.35;;;;;;;;;;5033280;28;20040;-73
2023/08/17 14:12:49;;;;;;;7.40;3.22;;;;;;;;;;5031793;28;20026;-73
2023/08/17 14:15:14;;;;;;;6.43;3.15;;;;;;;;;;5032001;28;20049;-73
2023/08/17 14:17:39;;;;;;;7.45;2.92;;;;;;;;;;5032841;28;20025;-73
2023/08/17 14:20:05;;;;;;;6.30;2.97;;;;;;;;;;5030373;28;20104;-73
2023/08/17 14:22:30;;;;;;;6.55;2.88;;;;;;;;;;5021039;28;20021;-72
2023/08/17 14:24:56;;;;;;;3.60;2.50;;;;;;;;;;5014171;28;20101;-72
2023/08/17 14:27:21;;;;;;;5.07;2.22;;;;;;;;;;5014439;28;20551;-72
2023/08/17 14:29:47;;;;;;;5.95;2.28;;;;;;;;;;5014948;28;20092;-72
2023/08/17 14:32:12;;;;;;;5.72;2.45;;;;;;;;;;5031286;28;20026;-72
2023/08/17 14:34:37;;;;;;;8.88;3.08;;;;;;;;;;5031187;28;20048;-72
2023/08/17 14:37:03;;;;;;;5.88;2.75;;;;;;;;;;5014690;28;20025;-72